Time;durP1;ratioP1;P1;durP2;ratioP2;P2;SDS_P1;SDS_P2;PMS_P1;PMS_P2;Temp;Humidity;BMP_temperature;BMP_pressure;BME280_temperature;BME280_humidity;BME280_pressure;Samples;Min_cycle;Max_cycle;Signal;HPM_P1;HPM_P2
2021/12/29 04:16:19;;;;;;;8.58;5.53;;;;;;;-5.62;76.18;99781.41;1694209;83;21578;-65
2021/12/29 04:19:06;;;;;;;8.63;6.33;;;;;;;-5.62;76.16;99777.11;1714525;81;20949;-65
2021/12/29 04:21:17;;;;;;;8.10;5.80;;;;;;;-5.64;76.13;99776.74;1761693;80;20977;-64
2021/12/29 04:23:43;;;;;;;9.50;5.78;;;;;;;-5.62;76.19;99775.81;1744673;81;21816;-65
2021/12/29 04:26:10;;;;;;;9.05;5.85;;;;;;;-5.61;76.16;99776.66;1745861;80;21154;-65
2021/12/29 04:28:37;;;;;;;8.33;6.00;;;;;;;-5.62;76.15;99770.67;1767382;80;21534;-65
2021/12/29 04:31:07;;;;;;;16.27;12.40;;;;;;;-5.62;76.12;99773.25;1752921;80;21017;-66
2021/12/29 04:33:36;;;;;;;10.65;8.10;;;;;;;-5.60;76.16;99769.34;1753187;80;21071;-65
2021/12/29 04:36:02;;;;;;;8.70;5.62;;;;;;;-5.58;76.12;99771.03;1756400;80;21817;-65
2021/12/29 04:38:29;;;;;;;9.78;5.50;;;;;;;-5.60;76.08;99759.90;1734699;80;21222;-65
2021/12/29 04:40:56;;;;;;;10.35;5.90;;;;;;;-5.61;76.05;99762.07;1771075;80;21029;-65
2021/12/29 04:43:23;;;;;;;6.87;5.47;;;;;;;-5.61;76.07;99761.23;1762253;80;21411;-64
2021/12/29 04:45:49;;;;;;;9.88;7.08;;;;;;;-5.60;76.09;99773.20;1737621;81;21047;-64
2021/12/29 04:48:16;;;;;;;8.53;5.58;;;;;;;-5.62;76.04;99777.11;1748116;80;22466;-65
2021/12/29 04:50:51;;;;;;;8.90;5.83;;;;;;;-5.61;76.03;99775.38;1742913;81;21183;-64
2021/12/29 04:53:14;;;;;;;8.70;6.28;;;;;;;-5.62;76.04;99773.25;1748377;80;21008;-65
2021/12/29 04:55:45;;;;;;;10.00;6.30;;;;;;;-5.62;76.05;99776.27;1749845;80;21446;-64
2021/12/29 04:58:09;;;;;;;8.80;6.17;;;;;;;-5.61;76.04;99778.80;1739561;81;21057;-65
2021/12/29 05:00:35;;;;;;;10.43;7.40;;;;;;;-5.58;76.08;99780.03;1744950;80;21798;-65
2021/12/29 05:03:03;;;;;;;11.10;6.67;;;;;;;-5.55;76.06;99779.11;1761776;80;20957;-65
2021/12/29 05:10:46;;;;;;;8.70;6.50;;;;;;;-5.51;75.95;99786.70;1712359;82;20945;-65
2021/12/29 05:13:14;;;;;;;13.53;7.50;;;;;;;-5.53;75.89;99784.61;1716829;82;21823;-65
2021/12/29 05:15:40;;;;;;;8.70;6.95;;;;;;;-5.54;75.88;99785.50;1720427;82;21639;-64
2021/12/29 05:18:07;;;;;;;8.83;5.83;;;;;;;-5.53;75.89;99786.34;1671987;83;21045;-64
2021/12/29 05:20:34;;;;;;;9.38;6.70;;;;;;;-5.52;75.87;99790.60;1673198;82;21060;-66
2021/12/29 05:23:01;;;;;;;8.55;6.72;;;;;;;-5.55;75.81;99786.38;1702805;83;21060;-64
2021/12/29 05:25:28;;;;;;;9.78;5.80;;;;;;;-5.53;75.82;99785.89;1701750;84;21835;-63
2021/12/29 05:27:55;;;;;;;8.98;6.47;;;;;;;-5.52;75.76;99782.44;1735836;81;21016;-64
2021/12/29 05:30:22;;;;;;;9.33;6.40;;;;;;;-5.55;75.65;99794.09;1762381;80;20882;-63
2021/12/29 05:32:49;;;;;;;9.18;6.60;;;;;;;-5.59;75.62;99800.66;1757911;80;21083;-65
2021/12/29 05:35:16;;;;;;;9.23;6.75;;;;;;;-5.61;75.62;99795.95;1738336;80;21083;-63
2021/12/29 05:37:43;;;;;;;8.35;6.05;;;;;;;-5.64;75.61;99803.75;1740963;82;21820;-63
2021/12/29 05:40:12;;;;;;;11.10;6.60;;;;;;;-5.64;75.68;99803.31;1762311;80;21047;-63
2021/12/29 05:42:38;;;;;;;10.95;7.03;;;;;;;-5.62;75.69;99815.69;1771362;80;21193;-64
2021/12/29 05:45:09;;;;;;;8.40;5.87;;;;;;;-5.61;75.65;99815.25;1738075;80;21052;-63
2021/12/29 05:47:35;;;;;;;10.15;6.65;;;;;;;-5.60;75.57;99822.09;1748737;80;21051;-64
2021/12/29 05:50:05;;;;;;;10.72;6.90;;;;;;;-5.63;75.53;99829.88;1770026;80;20998;-63
2021/12/29 05:52:32;;;;;;;9.13;6.75;;;;;;;-5.62;75.60;99827.72;1745898;80;20900;-63
2021/12/29 05:54:59;;;;;;;10.28;7.03;;;;;;;-5.60;75.60;99831.94;1736807;82;21021;-62
2021/12/29 05:57:25;;;;;;;11.35;6.65;;;;;;;-5.58;75.62;99834.06;1742643;82;20972;-62
2021/12/29 05:59:52;;;;;;;8.00;5.97;;;;;;;-5.55;75.63;99833.98;1735437;82;21012;-63
2021/12/29 06:02:18;;;;;;;10.20;6.50;;;;;;;-5.52;75.63;99837.77;1732437;81;21828;-62
2021/12/29 06:04:45;;;;;;;11.00;6.97;;;;;;;-5.51;75.60;99840.73;1724496;82;21001;-62
2021/12/29 06:07:13;;;;;;;7.87;5.62;;;;;;;-5.51;75.57;99832.17;1715022;82;22466;-62
2021/12/29 06:09:41;;;;;;;11.05;7.33;;;;;;;-5.50;75.55;99828.30;1703708;82;21076;-62
2021/12/29 06:12:08;;;;;;;8.13;5.72;;;;;;;-5.50;75.55;99827.02;1700796;82;21478;-63
2021/12/29 06:14:35;;;;;;;9.25;6.40;;;;;;;-5.50;75.48;99830.88;1719426;82;21886;-63
2021/12/29 06:17:02;;;;;;;8.18;5.85;;;;;;;-5.52;75.46;99841.63;1710543;82;20965;-63
2021/12/29 06:19:30;;;;;;;9.15;6.70;;;;;;;-5.53;75.41;99845.52;1700894;81;21515;-62
2021/12/29 06:21:57;;;;;;;9.40;6.20;;;;;;;-5.53;75.40;99853.23;1684792;83;21064;-63
2021/12/29 06:24:23;;;;;;;9.50;6.67;;;;;;;-5.51;75.40;99855.33;1686107;84;20960;-63
2021/12/29 06:26:50;;;;;;;10.23;6.08;;;;;;;-5.50;75.43;99859.18;1657722;85;21845;-63
2021/12/29 06:29:17;;;;;;;9.88;6.75;;;;;;;-5.49;75.42;99863.89;1740352;82;20961;-63
2021/12/29 06:31:46;;;;;;;10.63;7.50;;;;;;;-5.49;75.40;99863.89;1727287;82;20953;-63
2021/12/29 06:34:12;;;;;;;9.75;7.15;;;;;;;-5.48;75.43;99857.41;1714367;80;21171;-63
2021/12/29 06:36:40;;;;;;;9.83;6.20;;;;;;;-5.46;75.42;99857.38;1774161;80;21084;-63
2021/12/29 06:39:07;;;;;;;9.73;6.60;;;;;;;-5.42;75.40;99856.86;1774139;80;22497;-64
2021/12/29 06:41:33;;;;;;;9.35;6.60;;;;;;;-5.42;75.35;99849.13;1759660;80;20965;-63
2021/12/29 06:44:00;;;;;;;10.40;6.45;;;;;;;-5.41;75.30;99858.55;1739104;81;20992;-63
2021/12/29 06:46:26;;;;;;;12.10;6.72;;;;;;;-5.45;75.28;99844.91;1744320;81;21001;-63
2021/12/29 06:48:53;;;;;;;8.75;6.60;;;;;;;-5.44;75.29;99858.18;1760726;80;20996;-64
2021/12/29 06:51:19;;;;;;;9.18;6.83;;;;;;;-5.41;75.26;99850.83;1771519;80;21822;-63
2021/12/29 06:53:45;;;;;;;9.60;6.50;;;;;;;-5.38;75.28;99846.91;1767154;80;20974;-62
2021/12/29 06:56:12;;;;;;;9.08;6.45;;;;;;;-5.35;75.24;99846.83;1761188;81;20981;-63
2021/12/29 06:58:39;;;;;;;9.58;6.33;;;;;;;-5.34;75.16;99835.66;1757584;81;21024;-63
2021/12/29 07:01:05;;;;;;;10.23;7.10;;;;;;;-5.38;75.12;99835.33;1752239;81;20957;-64
2021/12/29 07:03:32;;;;;;;7.17;5.77;;;;;;;-5.37;75.10;99844.30;1765335;80;21827;-63
2021/12/29 07:05:59;;;;;;;9.40;6.30;;;;;;;-5.35;75.12;99848.97;1738780;80;21032;-63
2021/12/29 07:08:25;;;;;;;10.15;7.28;;;;;;;-5.34;75.09;99854.95;1758993;81;21069;-63
2021/12/29 07:10:52;;;;;;;10.45;7.05;;;;;;;-5.33;75.10;99858.78;1774319;80;21531;-63
2021/12/29 07:13:19;;;;;;;13.30;7.70;;;;;;;-5.30;75.11;99868.18;1760078;80;21083;-62
2021/12/29 07:15:46;;;;;;;9.93;7.00;;;;;;;-5.30;75.09;99868.18;1745889;80;24043;-62
2021/12/29 07:18:14;;;;;;;9.23;6.50;;;;;;;-5.28;75.09;99872.84;1740301;81;20924;-63
2021/12/29 07:20:42;;;;;;;9.70;7.25;;;;;;;-5.28;75.05;99872.84;1707192;83;21008;-63
2021/12/29 07:23:09;;;;;;;10.90;6.75;;;;;;;-5.28;75.00;99868.55;1742838;81;20985;-63
2021/12/29 07:25:35;;;;;;;10.15;6.33;;;;;;;-5.27;74.97;99868.09;1736357;80;21001;-63
2021/12/29 07:28:01;;;;;;;8.75;6.37;;;;;;;-5.27;74.94;99866.38;1730323;80;21886;-62
2021/12/29 07:30:28;;;;;;;10.48;6.72;;;;;;;-5.28;74.90;99856.11;1738225;80;21027;-62
2021/12/29 07:32:55;;;;;;;9.15;5.95;;;;;;;-5.26;74.93;99862.91;1722179;82;21392;-63
2021/12/29 07:35:22;;;;;;;9.08;6.80;;;;;;;-5.26;74.83;99850.48;1748172;80;20984;-64
2021/12/29 07:37:50;;;;;;;8.40;6.72;;;;;;;-5.28;74.80;99855.67;1748232;80;21542;-65
2021/12/29 07:40:16;;;;;;;10.78;7.03;;;;;;;-5.26;74.83;99852.61;1759874;80;23950;-63
2021/12/29 07:42:44;;;;;;;9.50;6.75;;;;;;;-5.22;74.84;99858.52;1719791;82;21005;-64
2021/12/29 07:45:11;;;;;;;9.55;7.10;;;;;;;-5.20;74.83;99855.05;1701431;83;21064;-65
2021/12/29 07:47:43;;;;;;;10.30;6.75;;;;;;;-5.18;74.80;99858.88;1760539;80;21494;-65
2021/12/29 07:50:08;;;;;;;9.75;6.87;;;;;;;-5.19;74.73;99852.88;1746683;80;21092;-65
2021/12/29 07:52:35;;;;;;;11.33;7.60;;;;;;;-5.21;74.67;99859.80;1765918;80;21827;-64
2021/12/29 07:55:02;;;;;;;9.53;6.97;;;;;;;-5.15;74.75;99865.67;1720477;82;21045;-63
2021/12/29 07:57:28;;;;;;;9.95;5.83;;;;;;;-5.11;74.80;99868.16;1734001;82;21045;-63
2021/12/29 07:59:56;;;;;;;10.00;6.67;;;;;;;-5.08;74.73;99862.08;1727554;81;21073;-63
2021/12/29 08:02:27;;;;;;;9.40;6.28;;;;;;;-5.08;74.66;99863.37;1729839;82;21112;-63
2021/12/29 08:04:52;;;;;;;9.20;6.60;;;;;;;-5.06;74.69;99868.88;1731953;80;21846;-64
2021/12/29 08:07:18;;;;;;;9.45;6.95;;;;;;;-5.05;74.57;99872.30;1771807;80;20961;-63
2021/12/29 08:09:45;;;;;;;10.08;6.50;;;;;;;-5.06;74.51;99873.19;1760494;80;20966;-64
2021/12/29 08:12:11;;;;;;;11.08;6.15;;;;;;;-5.11;74.42;99879.74;1765654;80;21008;-63
2021/12/29 08:14:38;;;;;;;8.43;6.42;;;;;;;-5.12;74.39;99872.03;1763284;80;20981;-64
2021/12/29 08:17:05;;;;;;;7.53;5.30;;;;;;;-5.09;74.43;99869.41;1763408;80;21829;-63
2021/12/29 08:19:33;;;;;;;10.05;6.87;;;;;;;-5.09;74.44;99874.55;1747055;80;20986;-64
2021/12/29 08:21:59;;;;;;;10.45;6.87;;;;;;;-5.08;74.39;99877.53;1746050;81;21407;-64
2021/12/29 08:24:25;;;;;;;8.15;6.58;;;;;;;-5.07;74.38;99869.77;1730326;82;20958;-64
2021/12/29 08:26:52;;;;;;;9.03;6.33;;;;;;;-5.08;74.38;99868.52;1736586;81;21048;-63
2021/12/29 08:29:18;;;;;;;7.78;5.95;;;;;;;-5.07;74.27;99871.49;1732491;80;21811;-63
2021/12/29 08:31:45;;;;;;;10.70;7.37;;;;;;;-5.09;74.13;99875.84;1738061;80;21099;-64
2021/12/29 08:34:12;;;;;;;9.08;6.12;;;;;;;-5.12;74.10;99870.73;1743391;80;21071;-65
2021/12/29 08:36:38;;;;;;;10.03;6.53;;;;;;;-5.10;74.15;99869.00;1729996;80;21438;-66
2021/12/29 08:39:05;;;;;;;8.53;6.40;;;;;;;-5.09;74.12;99861.23;1756095;80;21032;-65
2021/12/29 08:41:31;;;;;;;10.93;7.05;;;;;;;-5.07;74.15;99867.63;1747337;80;21702;-63
2021/12/29 08:43:58;;;;;;;12.15;8.28;;;;;;;-5.04;74.17;99869.68;1741024;80;21024;-64
2021/12/29 08:46:28;;;;;;;12.45;8.48;;;;;;;-5.02;74.17;99873.50;1740640;80;21477;-64
2021/12/29 08:48:57;;;;;;;12.33;7.92;;;;;;;-5.01;74.16;99870.91;1725169;81;21017;-65
2021/12/29 08:51:23;;;;;;;12.43;7.72;;;;;;;-4.98;74.18;99864.83;1734251;80;20966;-66
2021/12/29 08:53:50;;;;;;;11.63;8.45;;;;;;;-4.94;74.22;99870.30;1760688;80;21726;-65
2021/12/29 08:56:17;;;;;;;15.78;10.32;;;;;;;-4.90;74.25;99871.49;1707730;83;21434;-64
2021/12/29 08:58:44;;;;;;;15.05;10.43;;;;;;;-4.83;74.23;99870.03;1730393;82;21104;-63
2021/12/29 09:01:11;;;;;;;11.93;8.20;;;;;;;-4.79;74.18;99869.09;1754695;80;21047;-64
2021/12/29 09:03:38;;;;;;;10.98;7.75;;;;;;;-4.76;74.08;99865.98;1748954;80;21031;-64
2021/12/29 09:06:04;;;;;;;14.98;9.23;;;;;;;-4.73;74.07;99865.05;1703732;83;21833;-64
2021/12/29 09:08:31;;;;;;;11.85;8.45;;;;;;;-4.73;73.97;99864.64;1757417;80;21018;-63
2021/12/29 09:10:57;;;;;;;11.35;8.03;;;;;;;-4.72;73.93;99858.60;1772515;80;21099;-65
2021/12/29 09:13:25;;;;;;;15.00;9.47;;;;;;;-4.72;73.88;99861.18;1761200;80;21095;-64
2021/12/29 09:15:56;;;;;;;25.95;19.50;;;;;;;-4.72;73.77;99864.20;1753695;80;21427;-64
2021/12/29 09:18:23;;;;;;;13.05;10.10;;;;;;;-4.75;73.70;99861.23;1737836;80;22508;-64
2021/12/29 09:20:51;;;;;;;11.95;8.63;;;;;;;-4.70;73.72;99867.13;1771911;80;21072;-64
2021/12/29 09:23:17;;;;;;;13.03;8.35;;;;;;;-4.67;73.73;99868.78;1766486;80;21007;-64
2021/12/29 09:25:45;;;;;;;12.10;7.90;;;;;;;-4.63;73.72;99864.81;1763467;80;21017;-64
2021/12/29 09:28:15;;;;;;;11.00;7.35;;;;;;;-4.61;73.69;99863.03;1740933;80;20940;-64
2021/12/29 09:30:45;;;;;;;13.32;8.60;;;;;;;-4.58;73.66;99864.67;1761804;80;21883;-63
2021/12/29 09:33:11;;;;;;;11.73;9.38;;;;;;;-4.59;73.48;99862.14;1764451;80;20990;-65
2021/12/29 09:35:38;;;;;;;13.80;9.55;;;;;;;-4.62;73.37;99852.77;1738971;80;21349;-64
2021/12/29 09:38:06;;;;;;;11.88;7.97;;;;;;;-4.65;73.30;99852.83;1743780;80;20981;-64
2021/12/29 09:40:33;;;;;;;13.10;8.08;;;;;;;-4.69;73.23;99863.67;1750479;81;21104;-63
2021/12/29 09:43:00;;;;;;;12.93;8.80;;;;;;;-4.72;73.20;99853.89;1747744;80;21763;-65
2021/12/29 09:45:26;;;;;;;12.47;8.65;;;;;;;-4.72;73.17;99861.18;1730523;81;21550;-65
2021/12/29 09:47:57;;;;;;;13.38;9.30;;;;;;;-4.71;73.17;99864.59;1735218;81;21443;-64
2021/12/29 09:50:22;;;;;;;13.05;9.83;;;;;;;-4.70;73.17;99861.14;1728200;81;21785;-63
2021/12/29 09:52:48;;;;;;;15.23;9.50;;;;;;;-4.69;73.17;99867.98;1708673;82;21073;-63
2021/12/29 09:55:19;;;;;;;12.63;9.10;;;;;;;-4.68;73.15;99871.80;1726231;81;21814;-63
2021/12/29 09:57:49;;;;;;;12.95;9.08;;;;;;;-4.69;73.09;99869.27;1728111;82;21002;-64
2021/12/29 10:00:33;;;;;;;14.43;8.75;;;;;;;-4.71;73.14;99877.03;1740709;81;21109;-64
2021/12/29 10:03:02;;;;;;;12.23;8.40;;;;;;;-4.69;73.21;99876.55;1715979;82;21022;-63
2021/12/29 10:05:29;;;;;;;11.70;8.83;;;;;;;-4.69;73.07;99876.99;1726481;82;21668;-64
2021/12/29 10:08:02;;;;;;;13.00;9.28;;;;;;;-4.72;73.00;99875.80;1730683;82;21821;-63
2021/12/29 10:10:29;;;;;;;;;;;;;;;-4.71;73.06;99882.19;1711567;82;21105;-63
2021/12/29 10:12:55;;;;;;;12.65;8.30;;;;;;;-4.69;73.08;99884.28;1715297;81;20148;-64
2021/12/29 10:15:31;;;;;;;10.55;7.53;;;;;;;-4.67;73.11;99882.95;1712099;82;20993;-64
2021/12/29 10:18:17;;;;;;;15.15;9.48;;;;;;;-4.68;73.05;99874.82;1710039;83;21112;-64
2021/12/29 10:20:57;;;;;;;13.05;8.60;;;;;;;-4.70;73.00;99872.73;1709342;83;22482;-64
2021/12/29 10:23:31;;;;;;;11.93;8.50;;;;;;;-4.69;73.09;99876.99;1716973;81;21006;-64
2021/12/29 10:26:16;;;;;;;;;;;;;;;-4.65;73.12;99876.02;1725664;82;21080;-65
2021/12/29 10:28:47;;;;;;;;;;;;;;;-4.63;73.15;99867.83;1746806;82;20266;-65
2021/12/29 10:31:24;;;;;;;14.23;9.78;;;;;;;-4.62;73.12;99872.09;1728803;82;20480;-64
2021/12/29 10:33:53;;;;;;;14.73;9.28;;;;;;;-4.59;73.19;99878.45;1741067;80;21840;-64
2021/12/29 10:36:43;;;;;;;14.45;10.25;;;;;;;-4.55;73.15;99874.05;1758048;81;21061;-65
2021/12/29 10:39:21;;;;;;;15.18;10.20;;;;;;;-4.52;73.08;99866.27;1747798;81;21043;-63
2021/12/29 10:42:04;;;;;;;12.63;8.93;;;;;;;-4.54;72.86;99863.70;1736941;81;21020;-65
2021/12/29 10:44:42;;;;;;;13.95;9.60;;;;;;;-4.53;72.87;99871.02;1733665;81;21065;-66
2021/12/29 10:47:20;;;;;;;15.03;9.45;;;;;;;-4.56;72.81;99874.94;1741106;81;22498;-64
2021/12/29 10:50:13;;;;;;;16.50;10.00;;;;;;;-4.55;72.87;99874.05;1736717;81;21063;-64
2021/12/29 10:52:50;;;;;;;13.75;9.15;;;;;;;-4.53;72.89;99882.17;1714767;82;21053;-64
2021/12/29 10:55:21;;;;;;;15.53;10.50;;;;;;;-4.49;72.88;99886.80;1715937;82;21060;-63
2021/12/29 10:58:08;;;;;;;14.87;10.32;;;;;;;-4.48;72.86;99884.17;1706684;83;21560;-63
2021/12/29 11:00:37;;;;;;;13.88;9.63;;;;;;;-4.46;72.85;99875.10;1713315;82;22499;-64
2021/12/29 11:03:20;;;;;;;14.30;9.75;;;;;;;-4.46;72.80;99873.81;1696791;82;21139;-64
2021/12/29 11:05:50;;;;;;;14.80;9.73;;;;;;;-4.43;72.81;99873.75;1736347;82;20962;-65
2021/12/29 11:08:19;;;;;;;14.03;9.90;;;;;;;-4.44;72.78;99879.36;1733608;81;21068;-64
2021/12/29 11:10:46;;;;;;;15.63;9.95;;;;;;;-4.44;72.76;99878.48;1720682;82;21068;-64
2021/12/29 11:13:28;;;;;;;14.13;10.13;;;;;;;-4.44;72.78;99875.91;1725680;82;21846;-63
2021/12/29 11:15:55;;;;;;;13.55;9.05;;;;;;;-4.44;72.78;99880.64;1740215;80;21087;-65
2021/12/29 11:18:23;;;;;;;13.88;9.65;;;;;;;-4.44;72.58;99879.77;1762272;80;21573;-65
2021/12/29 11:20:57;;;;;;;12.65;9.18;;;;;;;-4.50;72.54;99883.81;1744865;80;21017;-65
2021/12/29 11:23:24;;;;;;;15.68;9.50;;;;;;;-4.52;72.63;99879.15;1756737;80;21020;-63
2021/12/29 11:25:51;;;;;;;13.18;9.03;;;;;;;-4.53;72.72;99879.59;1767256;80;21797;-65
2021/12/29 11:28:27;;;;;;;13.75;10.05;;;;;;;-4.50;72.78;99888.97;1751312;80;21035;-65
2021/12/29 11:30:59;;;;;;;11.65;8.28;;;;;;;-4.46;72.84;99889.28;1756729;80;21056;-65
2021/12/29 11:33:31;;;;;;;13.48;9.10;;;;;;;-4.44;72.82;99897.81;1773264;80;21052;-65
2021/12/29 11:35:58;;;;;;;14.28;9.38;;;;;;;-4.47;72.73;99900.48;1756622;80;22267;-65
2021/12/29 11:38:26;;;;;;;17.10;10.28;;;;;;;-4.46;72.77;99907.32;1772910;80;22458;-64
2021/12/29 11:40:56;;;;;;;25.15;12.93;;;;;;;-4.44;72.76;99911.98;1760721;80;21083;-65
2021/12/29 11:43:23;;;;;;;32.73;16.42;;;;;;;-4.45;72.66;99902.56;1758649;80;21442;-64
2021/12/29 11:45:51;;;;;;;22.70;13.15;;;;;;;-4.47;72.76;99908.21;1751804;80;21528;-65
2021/12/29 11:48:20;;;;;;;24.57;13.25;;;;;;;-4.45;72.80;99905.14;1773044;80;21016;-63
2021/12/29 11:50:51;;;;;;;24.90;13.32;;;;;;;-4.44;72.78;99906.42;1755011;80;21905;-64
2021/12/29 11:53:35;;;;;;;17.85;10.82;;;;;;;-4.42;72.83;99917.98;1748245;80;21454;-64
2021/12/29 11:56:19;;;;;;;16.35;10.00;;;;;;;-4.43;72.78;99917.13;1758282;80;21509;-64
2021/12/29 11:58:46;;;;;;;36.77;17.37;;;;;;;-4.41;72.83;99917.09;1713210;80;20924;-63
2021/12/29 12:01:23;;;;;;;29.55;13.62;;;;;;;-4.38;72.85;99919.58;1729843;81;21043;-63
2021/12/29 12:03:58;;;;;;;28.12;13.15;;;;;;;-4.35;72.86;99911.31;1725449;82;21519;-62
2021/12/29 12:06:41;;;;;;;34.20;16.12;;;;;;;-4.35;72.61;99909.17;1728005;81;21059;-64
2021/12/29 12:09:20;;;;;;;25.43;11.75;;;;;;;-4.39;72.51;99912.73;1742090;82;21638;-64
2021/12/29 12:11:53;;;;;;;33.60;16.02;;;;;;;-4.40;72.55;99914.91;1741163;82;21045;-64
2021/12/29 12:14:28;;;;;;;34.15;14.65;;;;;;;-4.39;72.61;99918.73;1726738;81;21039;-63
2021/12/29 12:17:04;;;;;;;;;;;;;;;-4.38;72.60;99920.86;1744459;80;21837;-65
2021/12/29 12:19:31;;;;;;;21.45;12.05;;;;;;;-4.36;72.58;99915.22;1761192;80;20271;-65
2021/12/29 12:22:07;;;;;;;18.17;11.20;;;;;;;-4.37;72.60;99912.24;1754731;80;21127;-65
2021/12/29 12:24:37;;;;;;;20.08;12.03;;;;;;;-4.34;72.63;99917.34;1752083;80;21047;-63
2021/12/29 12:27:08;;;;;;;17.07;10.05;;;;;;;-4.37;72.58;99920.82;1758130;80;21512;-63
2021/12/29 12:29:37;;;;;;;16.60;10.17;;;;;;;-4.38;72.54;99923.45;1750724;80;21827;-62
2021/12/29 12:32:17;;;;;;;31.93;16.12;;;;;;;-4.40;72.58;99920.06;1749490;80;21098;-63
2021/12/29 12:34:57;;;;;;;18.92;11.00;;;;;;;-4.41;72.59;99923.09;1761349;80;21020;-64
2021/12/29 12:37:37;;;;;;;15.80;9.20;;;;;;;-4.42;72.56;99933.00;1743292;80;21087;-64
2021/12/29 12:40:15;;;;;;;46.15;23.10;;;;;;;-4.43;72.50;99932.59;1737711;80;21087;-63
2021/12/29 12:42:42;;;;;;;26.25;13.68;;;;;;;-4.43;72.52;99934.33;1739058;80;21792;-64
2021/12/29 12:45:21;;;;;;;25.62;14.50;;;;;;;-4.41;72.51;99941.58;1757541;80;21021;-64
2021/12/29 12:47:48;;;;;;;18.55;10.72;;;;;;;-4.41;72.58;99951.44;1753627;80;21075;-64
2021/12/29 12:50:26;;;;;;;21.05;12.90;;;;;;;-4.39;72.50;99956.11;1737062;80;21505;-64
2021/12/29 12:52:55;;;;;;;15.95;10.13;;;;;;;-4.40;72.49;99957.00;1742753;80;21048;-64
2021/12/29 12:55:22;;;;;;;15.85;10.03;;;;;;;-4.39;72.40;99956.55;1747310;80;21828;-64
2021/12/29 12:57:50;;;;;;;13.30;9.25;;;;;;;-4.41;72.38;99963.48;1747505;80;21102;-64
2021/12/29 13:00:24;;;;;;;12.40;8.53;;;;;;;-4.41;72.44;99964.78;1741354;80;21118;-64
2021/12/29 13:02:58;;;;;;;19.37;11.50;;;;;;;-4.41;72.41;99963.48;1748433;80;20957;-63
2021/12/29 13:05:33;;;;;;;20.43;13.13;;;;;;;-4.43;72.37;99961.40;1760850;80;20952;-63
2021/12/29 13:08:13;;;;;;;16.65;11.75;;;;;;;-4.47;72.36;99965.77;1743480;81;21882;-64
2021/12/29 13:10:50;;;;;;;21.00;15.10;;;;;;;-4.47;72.44;99967.49;1733635;81;21054;-63
2021/12/29 13:13:21;;;;;;;27.45;18.77;;;;;;;-4.44;72.47;99972.56;1720225;81;21074;-63
2021/12/29 13:15:52;;;;;;;17.60;12.98;;;;;;;-4.41;72.46;99978.95;1715830;82;20957;-62
2021/12/29 13:18:19;;;;;;;15.25;11.03;;;;;;;-4.40;72.48;99976.33;1742673;81;21183;-62
2021/12/29 13:20:47;;;;;;;14.73;9.78;;;;;;;-4.39;72.45;99984.91;1734925;81;21843;-63
2021/12/29 13:23:19;;;;;;;16.05;11.48;;;;;;;-4.39;72.43;99981.05;1744648;80;21499;-63
2021/12/29 13:25:48;;;;;;;17.15;9.75;;;;;;;-4.38;72.45;99984.02;1773403;80;20977;-63
2021/12/29 13:28:15;;;;;;;14.05;9.68;;;;;;;-4.36;72.49;99983.54;1773999;80;20942;-63
2021/12/29 13:30:50;;;;;;;14.13;9.35;;;;;;;-4.34;72.50;99976.19;1761713;80;21005;-63
2021/12/29 13:33:29;;;;;;;12.90;9.23;;;;;;;-4.34;72.49;99981.80;1773926;80;21833;-64
2021/12/29 13:53:35;;;;;;;15.40;10.35;;;;;;;-3.82;72.24;100003.66;1855006;77;27342;-66
2021/12/29 13:56:14;;;;;;;15.20;10.93;;;;;;;-3.86;72.10;99999.03;1891796;75;21426;-66
2021/12/29 13:58:42;;;;;;;15.32;10.03;;;;;;;-3.96;72.06;100002.70;1854081;77;21826;-67
2021/12/29 14:01:09;;;;;;;19.02;12.58;;;;;;;-4.06;72.03;100005.97;1848606;77;20917;-66
2021/12/29 14:03:36;;;;;;;20.90;13.10;;;;;;;-4.12;72.03;100011.30;1862379;77;20968;-66
2021/12/29 14:06:06;;;;;;;25.77;15.32;;;;;;;-4.17;72.04;100014.42;1862057;77;20924;-66
2021/12/29 14:08:34;;;;;;;28.38;15.48;;;;;;;-4.19;72.06;100015.36;1862161;76;20912;-66
2021/12/29 14:11:03;;;;;;;39.45;20.08;;;;;;;-4.23;72.07;100018.91;1862190;77;21787;-65
2021/12/29 14:13:34;;;;;;;61.40;25.80;;;;;;;-4.29;72.02;100017.31;1862722;77;20976;-65
2021/12/29 14:16:05;;;;;;;90.87;36.17;;;;;;;-4.34;72.00;100020.02;1865150;76;21015;-67
2021/12/29 14:18:40;;;;;;;28.95;15.88;;;;;;;-4.40;71.99;100023.17;1868569;76;20972;-65
2021/12/29 14:21:16;;;;;;;18.82;11.28;;;;;;;-4.43;72.09;100022.81;1867605;76;20999;-65
2021/12/29 14:23:53;;;;;;;19.25;12.18;;;;;;;-4.43;72.19;100027.13;1868262;76;23957;-65
2021/12/29 14:26:19;;;;;;;16.65;11.50;;;;;;;-4.44;72.21;100018.55;1868570;76;20984;-65
2021/12/29 14:28:54;;;;;;;15.93;11.43;;;;;;;-4.43;72.25;100020.69;1868666;76;21032;-65
2021/12/29 14:31:20;;;;;;;21.10;13.40;;;;;;;-4.45;72.28;100022.42;1868211;76;21023;-65
2021/12/29 14:33:50;;;;;;;20.90;16.70;;;;;;;-4.47;72.31;100031.48;1868607;76;21077;-65
2021/12/29 14:36:44;;;;;;;20.17;15.08;;;;;;;-4.48;72.32;100037.97;1868610;76;21821;-66
2021/12/29 14:39:23;;;;;;;23.38;15.80;;;;;;;-4.49;72.35;100039.70;1868478;76;20979;-66
2021/12/29 14:42:12;;;;;;;24.15;17.07;;;;;;;-4.49;72.40;100040.15;1868584;76;21057;-66
2021/12/29 14:45:03;;;;;;;20.65;15.30;;;;;;;-4.50;72.42;100044.91;1868889;76;21019;-67
2021/12/29 14:47:31;;;;;;;19.17;13.75;;;;;;;-4.52;72.44;100044.94;1867154;76;21113;-66
2021/12/29 14:50:00;;;;;;;22.60;16.12;;;;;;;-4.52;72.46;100046.23;1863857;76;21870;-67
2021/12/29 14:52:42;;;;;;;21.25;14.45;;;;;;;-4.51;72.52;100050.94;1860490;76;21442;-70
2021/12/29 15:07:55;;;;;;;19.70;14.23;;;;;;;-3.98;72.18;100060.39;1785961;80;28287;-65
2021/12/29 15:10:30;;;;;;;18.12;13.53;;;;;;;-4.02;72.10;100056.20;1763208;81;22116;-65
2021/12/29 15:12:57;;;;;;;21.87;14.47;;;;;;;-4.12;72.08;100054.30;1730481;82;21743;-66
2021/12/29 15:15:29;;;;;;;19.15;13.70;;;;;;;-4.21;72.10;100058.39;1760273;81;21102;-65
2021/12/29 15:18:05;;;;;;;20.62;14.10;;;;;;;-4.27;72.16;100060.66;1758016;81;21083;-66
2021/12/29 15:20:40;;;;;;;20.15;13.68;;;;;;;-4.31;72.18;100059.05;1737323;82;21474;-66
2021/12/29 15:23:08;;;;;;;22.20;13.38;;;;;;;-4.36;72.20;100061.72;1736450;82;21071;-64
2021/12/29 15:25:35;;;;;;;20.90;14.03;;;;;;;-4.39;72.23;100067.41;1737236;82;22492;-64
2021/12/29 15:28:04;;;;;;;19.77;13.22;;;;;;;-4.44;72.24;100064.07;1737035;82;21273;-66
2021/12/29 15:30:35;;;;;;;17.42;12.23;;;;;;;-4.47;72.28;100066.28;1736564;82;21020;-65
2021/12/29 15:33:02;;;;;;;18.12;12.20;;;;;;;-4.49;72.32;100067.22;1759515;81;21425;-64
2021/12/29 15:35:29;;;;;;;17.87;12.93;;;;;;;-4.49;72.33;100060.77;1730722;82;21095;-65
2021/12/29 15:37:56;;;;;;;17.02;11.90;;;;;;;-4.51;72.38;100065.12;1759628;81;21762;-65
2021/12/29 15:40:24;;;;;;;17.75;11.78;;;;;;;-4.52;72.37;100062.14;1760184;81;21063;-64
2021/12/29 15:42:50;;;;;;;18.82;12.55;;;;;;;-4.52;72.44;100058.27;1730731;82;21020;-65
2021/12/29 15:45:18;;;;;;;16.42;12.20;;;;;;;-4.52;72.44;100055.70;1760187;81;21039;-65
2021/12/29 15:47:45;;;;;;;16.73;11.12;;;;;;;-4.50;72.46;100061.66;1730728;82;21424;-66
2021/12/29 15:50:14;;;;;;;14.33;10.00;;;;;;;-4.52;72.45;100060.41;1760210;81;21794;-66
2021/12/29 15:52:41;;;;;;;13.15;9.35;;;;;;;-4.52;72.46;100061.70;1701573;84;21142;-68
2021/12/29 15:55:10;;;;;;;13.93;9.95;;;;;;;-4.55;72.48;100063.48;1727494;83;21074;-66
2021/12/29 15:57:37;;;;;;;13.83;9.30;;;;;;;-4.58;72.50;100063.55;1669269;85;21444;-65
2021/12/29 16:00:11;;;;;;;15.00;9.85;;;;;;;-4.58;72.51;100063.55;1666140;86;20966;-67
2021/12/29 16:02:40;;;;;;;16.27;10.95;;;;;;;-4.57;72.50;100069.11;1674643;85;21856;-66
2021/12/29 16:05:08;;;;;;;14.65;9.78;;;;;;;-4.57;72.56;100066.53;1759000;81;20960;-66
2021/12/29 16:07:36;;;;;;;13.15;9.30;;;;;;;-4.57;72.58;100074.27;1759655;81;20972;-65
2021/12/29 16:10:06;;;;;;;15.95;10.78;;;;;;;-4.61;72.54;100078.66;1759894;81;21375;-65
2021/12/29 16:12:32;;;;;;;16.05;10.78;;;;;;;-4.63;72.54;100088.16;1734300;82;21045;-65
2021/12/29 16:14:59;;;;;;;14.73;10.38;;;;;;;-4.67;72.59;100082.64;1734354;82;21825;-64
2021/12/29 16:17:26;;;;;;;21.27;14.63;;;;;;;-4.67;72.64;100089.09;1734283;82;21429;-66
2021/12/29 16:19:54;;;;;;;19.95;15.55;;;;;;;-4.69;72.66;100089.56;1734202;82;21092;-64
2021/12/29 16:22:21;;;;;;;19.87;14.20;;;;;;;-4.70;72.72;100091.73;1684453;82;21524;-64
2021/12/29 16:24:48;;;;;;;21.37;15.40;;;;;;;-4.71;72.75;100094.76;1703484;84;20995;-66
2021/12/29 16:27:21;;;;;;;17.40;13.08;;;;;;;-4.70;72.80;100099.47;1704879;84;21857;-67